createdAt,value
2023-02-06T00:01:53.033Z,101035.00
2023-02-06T00:04:21.709Z,101055.16
2023-02-06T00:06:50.372Z,101023.03
2023-02-06T00:09:19.546Z,101047.78
2023-02-06T00:11:48.240Z,101003.28
2023-02-06T00:14:16.884Z,101021.09
2023-02-06T00:16:45.546Z,101034.75
2023-02-06T00:19:14.325Z,101043.66
2023-02-06T00:21:43.632Z,101000.56
2023-02-06T00:24:12.143Z,101006.38
2023-02-06T00:26:40.876Z,101051.16
2023-02-06T00:29:09.445Z,101063.91
2023-02-06T00:31:38.202Z,101005.50
2023-02-06T00:34:08.177Z,101036.41
2023-02-06T00:36:36.712Z,101080.53
2023-02-06T00:39:05.506Z,101057.50
2023-02-06T00:41:36.945Z,101041.41
2023-02-06T00:44:05.710Z,101036.94
2023-02-06T00:46:34.506Z,101021.53
2023-02-06T00:49:03.496Z,101039.91
2023-02-06T00:51:32.078Z,101084.34
2023-02-06T00:54:01.051Z,101030.50
2023-02-06T00:56:32.142Z,101032.59
2023-02-06T00:59:00.992Z,101080.28
2023-02-06T01:01:30.095Z,101078.91
2023-02-06T01:03:58.777Z,100959.94
2023-02-06T01:06:27.564Z,101069.09
2023-02-06T01:08:59.179Z,101064.44
2023-02-06T01:11:29.714Z,101063.78
2023-02-06T01:13:58.308Z,101073.06
2023-02-06T01:16:26.980Z,101007.13
2023-02-06T01:18:55.712Z,101033.44
2023-02-06T01:21:25.872Z,101035.00
2023-02-06T01:23:55.737Z,101061.59
2023-02-06T01:26:29.938Z,101075.19
2023-02-06T01:28:58.687Z,101066.69
2023-02-06T01:31:30.018Z,101044.81
2023-02-06T01:34:01.028Z,101018.59
2023-02-06T01:36:30.320Z,101025.94
2023-02-06T01:38:58.936Z,101018.88
2023-02-06T01:41:27.806Z,100929.66
2023-02-06T01:44:17.954Z,101050.88
2023-02-06T01:46:50.383Z,101037.09
2023-02-06T01:49:57.331Z,101001.91
2023-02-06T01:52:31.935Z,101037.31
2023-02-06T01:55:03.640Z,101007.72
2023-02-06T01:57:35.010Z,101033.81
2023-02-06T02:00:09.054Z,101049.31
2023-02-06T02:02:44.720Z,101013.72
2023-02-06T02:05:14.005Z,101019.97
2023-02-06T02:07:55.602Z,101007.72
2023-02-06T02:10:24.445Z,101010.91
2023-02-06T02:12:55.068Z,101007.78
2023-02-06T02:15:32.013Z,101020.41
2023-02-06T02:18:16.935Z,101047.59
2023-02-06T02:21:07.671Z,101034.84
2023-02-06T02:23:54.878Z,101043.44
2023-02-06T02:26:57.174Z,101040.00
2023-02-06T02:30:02.783Z,101043.88
2023-02-06T02:32:49.710Z,101034.78
2023-02-06T02:35:33.610Z,101045.97
2023-02-06T02:38:38.746Z,101048.84
2023-02-06T02:41:31.047Z,101042.91
2023-02-06T02:44:13.321Z,100907.84
2023-02-06T02:46:45.548Z,100904.28
2023-02-06T02:49:30.285Z,100824.63
2023-02-06T02:52:00.670Z,101015.59
2023-02-06T02:54:29.392Z,101053.09
2023-02-06T02:57:04.787Z,100917.22
2023-02-06T02:59:45.776Z,100969.03
2023-02-06T03:02:22.612Z,101002.28
2023-02-06T03:04:58.303Z,101046.50
2023-02-06T03:08:00.253Z,100986.25
2023-02-06T03:10:59.010Z,101033.22
2023-02-06T03:13:39.513Z,101014.19
2023-02-06T03:16:18.462Z,101040.50
2023-02-06T03:19:11.888Z,101008.28
2023-02-06T03:21:42.163Z,101030.84
2023-02-06T03:24:27.419Z,100999.59
2023-02-06T03:27:02.554Z,101008.38
2023-02-06T03:29:34.961Z,101041.13
2023-02-06T03:32:26.537Z,101008.69
2023-02-06T03:35:13.074Z,100982.84
2023-02-06T03:37:41.804Z,100999.09
2023-02-06T03:40:11.972Z,101004.06
2023-02-06T03:42:45.767Z,101010.53
2023-02-06T03:45:23.077Z,101025.91
2023-02-06T03:47:55.823Z,101008.72
2023-02-06T03:50:26.890Z,100993.53
2023-02-06T03:52:58.897Z,100972.88
2023-02-06T03:55:27.574Z,101002.41
2023-02-06T03:58:06.287Z,100994.59
2023-02-06T04:00:35.448Z,100973.56
2023-02-06T04:03:05.770Z,100897.75
2023-02-06T04:05:37.606Z,100895.50
2023-02-06T04:08:07.202Z,101001.47
2023-02-06T04:10:35.926Z,100982.66
2023-02-06T04:13:04.560Z,100990.84
2023-02-06T04:15:33.109Z,100993.25
2023-02-06T04:18:02.058Z,100942.47
2023-02-06T04:20:31.308Z,101004.34
2023-02-06T04:23:00.463Z,101021.72
2023-02-06T04:25:29.074Z,101015.03
2023-02-06T04:27:57.850Z,100977.78
2023-02-06T04:30:26.645Z,100892.00
2023-02-06T04:32:55.256Z,100881.81
2023-02-06T04:35:24.292Z,100973.19
2023-02-06T04:37:52.981Z,100966.56
2023-02-06T04:40:22.359Z,100953.75
2023-02-06T04:42:51.101Z,100961.41
2023-02-06T04:45:20.006Z,100973.41
2023-02-06T04:47:52.057Z,100965.00
2023-02-06T04:50:23.365Z,101019.63
2023-02-06T04:52:52.148Z,100966.16
2023-02-06T04:55:20.744Z,100985.78
2023-02-06T04:57:49.771Z,101002.75
2023-02-06T05:00:18.753Z,100980.97
2023-02-06T05:02:47.371Z,100981.38
2023-02-06T05:05:16.291Z,100882.56
2023-02-06T05:07:45.137Z,100991.31
2023-02-06T05:10:13.911Z,100962.59
2023-02-06T05:12:42.740Z,100958.88
2023-02-06T05:15:11.557Z,100964.81
2023-02-06T05:17:40.215Z,100884.09
2023-02-06T05:20:09.732Z,100985.41
2023-02-06T05:22:38.358Z,100988.50
2023-02-06T05:25:07.590Z,100987.56
2023-02-06T05:27:36.647Z,100973.50
2023-02-06T05:30:06.170Z,100955.06
2023-02-06T05:32:34.851Z,100951.78
2023-02-06T05:35:03.568Z,100960.22
2023-02-06T05:37:32.096Z,100913.50
2023-02-06T05:40:00.853Z,100988.31
2023-02-06T05:42:29.716Z,100993.06
2023-02-06T05:44:58.437Z,100965.03
2023-02-06T05:47:27.181Z,100947.81
2023-02-06T05:49:55.982Z,100991.19
2023-02-06T05:52:24.857Z,101013.03
2023-02-06T05:54:53.555Z,101004.34
2023-02-06T05:57:22.419Z,100976.97
2023-02-06T05:59:51.039Z,100977.94
2023-02-06T06:02:19.942Z,101033.59
2023-02-06T06:04:48.644Z,100912.59
2023-02-06T06:07:17.599Z,101018.03
2023-02-06T06:09:46.422Z,100980.59
2023-02-06T06:12:14.966Z,100995.00
2023-02-06T06:14:43.818Z,101019.94
2023-02-06T06:17:12.449Z,100999.84
2023-02-06T06:19:41.326Z,100980.06
2023-02-06T06:22:11.078Z,100992.34
2023-02-06T06:24:39.872Z,100980.63
2023-02-06T06:27:11.438Z,101021.00
2023-02-06T06:29:40.325Z,101009.97
2023-02-06T06:32:08.942Z,100985.59
2023-02-06T06:34:37.786Z,101008.47
2023-02-06T06:37:06.614Z,101009.44
2023-02-06T06:39:35.323Z,100937.03
2023-02-06T06:42:05.025Z,100996.19
2023-02-06T06:44:33.839Z,100896.44
2023-02-06T06:47:02.456Z,100997.91
2023-02-06T06:49:31.260Z,100968.88
2023-02-06T06:52:00.001Z,100969.47
2023-02-06T06:54:28.867Z,100998.53
2023-02-06T06:56:57.780Z,100950.31
2023-02-06T06:59:26.463Z,100998.22
2023-02-06T07:01:55.349Z,100973.38
2023-02-06T07:04:30.140Z,100967.16
2023-02-06T07:06:59.296Z,100971.63
2023-02-06T07:09:28.140Z,100964.66
2023-02-06T07:11:56.819Z,100966.09
2023-02-06T07:14:25.779Z,100995.03
2023-02-06T07:16:54.480Z,100976.03
2023-02-06T07:19:23.318Z,100968.75
2023-02-06T07:21:51.847Z,100962.75
2023-02-06T07:24:20.540Z,100975.88
2023-02-06T07:26:49.159Z,100859.94
2023-02-06T07:29:17.999Z,100943.09
2023-02-06T07:31:46.786Z,100948.31
2023-02-06T07:34:17.483Z,100863.66
2023-02-06T07:36:46.243Z,100979.38
2023-02-06T07:39:14.978Z,100957.91
2023-02-06T07:41:43.761Z,100939.94
2023-02-06T07:44:14.182Z,100922.66
2023-02-06T07:46:44.549Z,100977.47
2023-02-06T07:49:15.507Z,100971.28
2023-02-06T07:51:45.064Z,100959.59
2023-02-06T07:54:14.181Z,100934.06
2023-02-06T07:56:43.865Z,100943.66
2023-02-06T07:59:12.661Z,100921.06
2023-02-06T08:01:41.380Z,100917.25
2023-02-06T08:04:11.250Z,100844.56
2023-02-06T08:06:43.220Z,100920.75
2023-02-06T08:09:17.957Z,100950.94
2023-02-06T08:11:49.108Z,100926.88
2023-02-06T08:14:17.767Z,100925.34
2023-02-06T08:16:46.789Z,100821.00
2023-02-06T08:19:15.791Z,100897.59
2023-02-06T08:21:44.392Z,100900.72
2023-02-06T08:24:14.365Z,100901.44
2023-02-06T08:26:44.584Z,100900.81
2023-02-06T08:29:15.172Z,100899.53
2023-02-06T08:31:44.323Z,100838.69
2023-02-06T08:34:15.252Z,100918.19
2023-02-06T08:36:44.965Z,100896.31
2023-02-06T08:39:15.676Z,100930.03
2023-02-06T08:41:47.106Z,100942.63
2023-02-06T08:44:19.868Z,100930.31
2023-02-06T08:46:52.351Z,100924.44
2023-02-06T08:49:27.107Z,100910.94
2023-02-06T08:51:55.914Z,100917.69
2023-02-06T08:54:25.231Z,100894.22
2023-02-06T08:56:56.949Z,100824.53
2023-02-06T08:59:25.915Z,100888.50
2023-02-06T09:01:54.634Z,100899.34
2023-02-06T09:04:23.395Z,100913.84
2023-02-06T09:06:52.929Z,100858.97
2023-02-06T09:09:21.619Z,100906.56
2023-02-06T09:11:50.373Z,100915.88
2023-02-06T09:14:19.578Z,100936.13
2023-02-06T09:16:48.498Z,100922.38
2023-02-06T09:19:17.104Z,100880.81
2023-02-06T09:21:45.939Z,100891.25
2023-02-06T09:24:14.670Z,100898.75
2023-02-06T09:26:58.388Z,100894.66
2023-02-06T09:29:29.925Z,100915.72
2023-02-06T09:31:58.870Z,100888.59
2023-02-06T09:34:28.835Z,100901.63
2023-02-06T09:36:58.485Z,100819.44
2023-02-06T09:39:27.648Z,100912.56
2023-02-06T09:42:01.278Z,100884.75
2023-02-06T09:44:45.402Z,100910.13
2023-02-06T09:47:28.281Z,100910.66
2023-02-06T09:50:28.528Z,100869.78
2023-02-06T09:53:06.241Z,100893.38
2023-02-06T09:55:43.002Z,100904.56
2023-02-06T09:58:37.374Z,100900.28
2023-02-06T10:01:18.265Z,100898.44
2023-02-06T10:04:15.130Z,100878.03
2023-02-06T10:07:01.485Z,100872.97
2023-02-06T10:09:57.766Z,100879.25
2023-02-06T10:12:36.088Z,100878.22
2023-02-06T10:15:08.598Z,100887.75
2023-02-06T10:18:03.461Z,100799.78
2023-02-06T10:20:41.919Z,100871.53
2023-02-06T10:23:25.640Z,100907.72
2023-02-06T10:26:20.460Z,100909.66
2023-02-06T10:28:58.942Z,100879.13
2023-02-06T10:31:46.194Z,100881.91
2023-02-06T10:34:48.864Z,100893.84
2023-02-06T10:37:26.446Z,100909.47
2023-02-06T10:39:58.327Z,100910.06
2023-02-06T10:42:46.046Z,100902.25
2023-02-06T10:45:29.900Z,100917.53
2023-02-06T10:48:27.136Z,100815.69
2023-02-06T10:51:26.073Z,100923.63
2023-02-06T10:54:03.460Z,100915.84
2023-02-06T10:56:41.737Z,100895.34
2023-02-06T10:59:29.811Z,100900.94
2023-02-06T11:02:13.571Z,100862.19
2023-02-06T11:05:20.340Z,100922.16
2023-02-06T11:08:09.602Z,100930.63
2023-02-06T11:10:38.887Z,100897.69
2023-02-06T11:13:12.183Z,100900.34
2023-02-06T11:15:56.303Z,100933.34
2023-02-06T11:18:41.008Z,100916.63
2023-02-06T11:21:11.420Z,100837.34
2023-02-06T11:23:41.139Z,100941.53
2023-02-06T11:26:14.820Z,100950.66
2023-02-06T11:29:10.638Z,100834.31
2023-02-06T11:31:47.224Z,100950.19
2023-02-06T11:34:29.984Z,100962.56
2023-02-06T11:37:01.947Z,100914.06
2023-02-06T11:39:35.761Z,100958.59
2023-02-06T11:42:19.729Z,100960.00
2023-02-06T11:44:53.044Z,100911.41
2023-02-06T11:47:37.957Z,100962.38
2023-02-06T11:50:22.188Z,100964.84
2023-02-06T11:52:59.281Z,100923.28
2023-02-06T11:55:32.607Z,100855.94
2023-02-06T11:58:14.527Z,100970.91
2023-02-06T12:00:57.687Z,100974.00
2023-02-06T12:03:26.773Z,100970.47
2023-02-06T12:05:59.011Z,100927.34
2023-02-06T12:08:47.949Z,100847.19
2023-02-06T12:11:35.320Z,100919.25
2023-02-06T12:14:17.184Z,100956.88
2023-02-06T12:16:48.013Z,100927.66
2023-02-06T12:19:32.498Z,100841.41
2023-02-06T12:22:19.300Z,100880.13
2023-02-06T12:24:51.030Z,100913.47
2023-02-06T12:27:40.173Z,100897.84
2023-02-06T12:30:29.107Z,100948.38
2023-02-06T12:33:08.024Z,100942.38
2023-02-06T12:35:48.206Z,100918.38
2023-02-06T12:38:31.490Z,100949.94
2023-02-06T12:41:23.275Z,100942.38
2023-02-06T12:44:12.395Z,100885.66
2023-02-06T12:46:43.737Z,100958.19
2023-02-06T12:49:24.105Z,100895.00
2023-02-06T12:52:23.250Z,100949.56
2023-02-06T12:54:58.795Z,100909.88
2023-02-06T12:57:31.927Z,100894.38
2023-02-06T13:00:10.457Z,100937.16
2023-02-06T13:03:14.787Z,100944.34
2023-02-06T13:05:50.270Z,100914.69
2023-02-06T13:08:26.743Z,100944.69
2023-02-06T13:11:04.679Z,100816.03
2023-02-06T13:13:40.250Z,100829.25
2023-02-06T13:16:11.507Z,100916.06
2023-02-06T13:18:43.154Z,100942.53
2023-02-06T13:21:29.130Z,100850.31
2023-02-06T13:24:04.624Z,100950.06
2023-02-06T13:26:52.359Z,100945.72
2023-02-06T13:29:28.134Z,100946.44
2023-02-06T13:32:29.951Z,100962.56
2023-02-06T13:35:22.042Z,100862.13
2023-02-06T13:38:10.929Z,100907.19
2023-02-06T13:40:40.498Z,100865.66
2023-02-06T13:43:14.462Z,100947.91
2023-02-06T13:46:08.224Z,100925.84
2023-02-06T13:49:10.528Z,100945.91
2023-02-06T13:52:11.392Z,100903.06
2023-02-06T13:54:58.010Z,100949.44
2023-02-06T13:57:33.586Z,100917.66
2023-02-06T14:00:24.735Z,100875.75
2023-02-06T14:03:17.390Z,100920.44
2023-02-06T14:15:28.203Z,100956.25
2023-02-06T14:19:16.897Z,100878.16
2023-02-06T14:21:48.079Z,100956.25
2023-02-06T14:24:28.380Z,100960.56
2023-02-06T14:27:19.532Z,100954.56
2023-02-06T14:30:27.335Z,100954.66
2023-02-06T14:33:19.403Z,100952.97
2023-02-06T14:40:33.907Z,100903.41
2023-02-06T14:43:41.610Z,100952.34
2023-02-06T14:46:19.917Z,100948.13
2023-02-06T14:48:59.088Z,100940.84
2023-02-06T14:51:37.567Z,100899.22
2023-02-06T14:54:26.775Z,100954.91
2023-02-06T14:57:00.427Z,100910.19
2023-02-06T14:59:30.174Z,100921.16
2023-02-06T15:02:00.306Z,100896.09
2023-02-06T15:04:31.387Z,100914.25
2023-02-06T15:07:05.131Z,100910.22
2023-02-06T15:09:39.809Z,100835.84
2023-02-06T15:12:25.466Z,100919.16
2023-02-06T15:15:03.413Z,100837.72
2023-02-06T15:17:34.811Z,100905.50
2023-02-06T15:20:41.089Z,100956.22
2023-02-06T15:23:19.722Z,100936.72
2023-02-06T15:26:02.270Z,100949.56
2023-02-06T15:28:34.708Z,100921.25
2023-02-06T15:31:04.245Z,100823.06
2023-02-06T15:33:35.329Z,100942.88
2023-02-06T15:36:06.704Z,100898.59
2023-02-06T15:38:35.709Z,100926.59
2023-02-06T15:41:11.181Z,100922.28
2023-02-06T15:43:44.792Z,100919.44
2023-02-06T15:46:15.673Z,100932.13
2023-02-06T15:48:55.935Z,100896.03
2023-02-06T15:51:52.628Z,100950.78
2023-02-06T15:54:24.988Z,100930.13
2023-02-06T15:57:02.454Z,100928.56
2023-02-06T15:59:36.032Z,100925.03
2023-02-06T16:02:06.412Z,100943.47
2023-02-06T16:04:37.916Z,100883.16
2023-02-06T16:07:17.274Z,100937.44
2023-02-06T16:10:07.445Z,100963.56
2023-02-06T16:12:42.804Z,100923.56
2023-02-06T16:15:36.717Z,100966.25
2023-02-06T16:18:32.652Z,100966.66
2023-02-06T16:21:19.803Z,100965.16
2023-02-06T16:24:00.862Z,100937.78
2023-02-06T16:26:44.471Z,100841.94
2023-02-06T16:29:13.341Z,100979.94
2023-02-06T16:31:44.569Z,100940.13
2023-02-06T16:34:39.748Z,100892.63
2023-02-06T16:37:21.475Z,100899.75
2023-02-06T16:39:51.968Z,100951.53
2023-02-06T16:42:22.486Z,100920.13
2023-02-06T16:44:54.313Z,100943.72
2023-02-06T16:47:23.760Z,100933.44
2023-02-06T16:49:52.861Z,100946.72
2023-02-06T16:52:27.846Z,100914.00
2023-02-06T16:55:01.273Z,100922.59
2023-02-06T16:57:37.133Z,100956.25
2023-02-06T17:00:33.317Z,100858.28
2023-02-06T17:03:02.498Z,100947.41
2023-02-06T17:05:33.908Z,100983.41
2023-02-06T17:08:04.639Z,100902.09
2023-02-06T17:10:33.223Z,100847.84
2023-02-06T17:13:01.770Z,100966.84
2023-02-06T17:15:31.307Z,100918.94
2023-02-06T17:18:01.168Z,100977.19
2023-02-06T17:20:39.934Z,100944.91
2023-02-06T17:23:11.752Z,100976.81
2023-02-06T17:25:41.417Z,100863.16
2023-02-06T17:28:12.691Z,100949.38
2023-02-06T17:30:41.870Z,100887.50
2023-02-06T17:33:10.821Z,100958.25
2023-02-06T17:35:42.379Z,100971.22
2023-02-06T17:38:11.693Z,100946.22
2023-02-06T17:40:43.409Z,100903.09
2023-02-06T17:43:12.568Z,100970.72
2023-02-06T17:45:44.130Z,100976.28
2023-02-06T17:48:12.870Z,100995.22
2023-02-06T17:50:43.947Z,100951.56
2023-02-06T17:53:16.963Z,100938.78
2023-02-06T17:55:46.720Z,100961.63
2023-02-06T17:58:15.730Z,100968.25
2023-02-06T18:00:44.599Z,100982.19
2023-02-06T18:03:17.876Z,100902.38
2023-02-06T18:05:47.850Z,100913.78
2023-02-06T18:08:19.110Z,100935.16
2023-02-06T18:10:50.790Z,100956.16
2023-02-06T18:13:21.350Z,100940.06
2023-02-06T18:15:55.483Z,100988.28
2023-02-06T18:18:25.436Z,100952.06
2023-02-06T18:20:54.068Z,100956.97
2023-02-06T18:23:22.780Z,101005.56
2023-02-06T18:25:51.932Z,100897.63
2023-02-06T18:28:26.427Z,101004.13
2023-02-06T18:30:55.081Z,100990.75
2023-02-06T18:33:24.365Z,100986.56
2023-02-06T18:35:53.144Z,100973.09
2023-02-06T18:38:22.406Z,100960.88
2023-02-06T18:40:51.290Z,100957.97
2023-02-06T18:43:19.961Z,100911.50
2023-02-06T18:45:48.686Z,100817.69
2023-02-06T18:48:17.290Z,100883.06
2023-02-06T18:50:46.160Z,100895.34
2023-02-06T18:53:16.772Z,100884.31
2023-02-06T18:55:46.000Z,100968.44
2023-02-06T18:58:15.159Z,100932.81
2023-02-06T19:00:44.149Z,100970.44
2023-02-06T19:03:12.610Z,100905.91
2023-02-06T19:05:41.570Z,100938.00
2023-02-06T19:08:10.059Z,100911.44
2023-02-06T19:10:41.465Z,100959.44
2023-02-06T19:13:10.080Z,100922.09
2023-02-06T19:15:38.983Z,100972.03
2023-02-06T19:18:08.589Z,100908.13
2023-02-06T19:20:37.909Z,100979.50
2023-02-06T19:23:06.682Z,100944.69
2023-02-06T19:25:34.998Z,100924.50
2023-02-06T19:28:03.570Z,100965.63
2023-02-06T19:30:32.945Z,100912.00
2023-02-06T19:33:01.715Z,100943.19
2023-02-06T19:35:30.397Z,100951.56
2023-02-06T19:38:00.288Z,100902.88
2023-02-06T19:40:28.991Z,100927.63
2023-02-06T19:42:57.632Z,100944.88
2023-02-06T19:45:26.635Z,100965.81
2023-02-06T19:47:55.351Z,100912.47
2023-02-06T19:50:24.590Z,100922.81
2023-02-06T19:52:53.896Z,100966.72
2023-02-06T19:55:23.016Z,100963.59
2023-02-06T19:57:54.626Z,100933.16
2023-02-06T20:00:23.741Z,100953.53
2023-02-06T20:02:52.625Z,100920.47
2023-02-06T20:05:27.361Z,100980.63
2023-02-06T20:07:56.305Z,100962.03
2023-02-06T20:10:25.771Z,100934.50
2023-02-06T20:12:55.551Z,100839.41
2023-02-06T20:15:24.267Z,100923.00
2023-02-06T20:17:55.972Z,100949.50
2023-02-06T20:20:25.224Z,100946.69
2023-02-06T20:22:53.892Z,100934.31
2023-02-06T20:25:22.670Z,100860.25
2023-02-06T20:27:51.461Z,100969.66
2023-02-06T20:30:20.354Z,100949.75
2023-02-06T20:32:49.189Z,100936.09
2023-02-06T20:35:17.972Z,100957.88
2023-02-06T20:37:46.873Z,100964.81
2023-02-06T20:40:15.456Z,100975.72
2023-02-06T20:42:46.572Z,100969.84
2023-02-06T20:45:15.507Z,100913.88
2023-02-06T20:47:44.148Z,100963.19
2023-02-06T20:50:14.313Z,100935.38
2023-02-06T20:52:43.124Z,100939.16
2023-02-06T20:55:11.889Z,100944.41
2023-02-06T20:57:40.650Z,100945.22
2023-02-06T21:00:09.866Z,100956.06
2023-02-06T21:02:38.611Z,100967.75
2023-02-06T21:05:07.691Z,100917.41
2023-02-06T21:07:36.530Z,100964.06
2023-02-06T21:10:05.606Z,100947.81
2023-02-06T21:12:34.224Z,100954.84
2023-02-06T21:15:03.086Z,100982.94
2023-02-06T21:17:31.908Z,100970.56
2023-02-06T21:20:00.491Z,100967.16
2023-02-06T21:22:29.284Z,100962.66
2023-02-06T21:24:57.990Z,100972.50
2023-02-06T21:27:26.753Z,100951.16
2023-02-06T21:29:57.633Z,101004.69
2023-02-06T21:32:26.794Z,100980.97
2023-02-06T21:34:56.392Z,101013.22
2023-02-06T21:37:25.228Z,101002.06
2023-02-06T21:39:53.973Z,100997.78
2023-02-06T21:42:26.853Z,100961.31
2023-02-06T21:44:55.450Z,100964.31
2023-02-06T21:47:24.193Z,100998.56
2023-02-06T21:49:52.993Z,100932.72
2023-02-06T21:52:21.973Z,100988.00
2023-02-06T21:54:50.657Z,100987.50
2023-02-06T21:57:19.671Z,100965.03
2023-02-06T21:59:48.393Z,100980.13
2023-02-06T22:02:17.092Z,100909.09
2023-02-06T22:04:45.975Z,100989.41
2023-02-06T22:07:14.733Z,100983.44
2023-02-06T22:09:43.374Z,100994.84
2023-02-06T22:12:12.135Z,100965.88
2023-02-06T22:14:40.773Z,100934.41
2023-02-06T22:17:09.549Z,100994.66
2023-02-06T22:19:38.572Z,100986.72
2023-02-06T22:22:07.174Z,100963.97
2023-02-06T22:24:35.849Z,101010.84
2023-02-06T22:27:04.649Z,100996.06
2023-02-06T22:29:33.472Z,100948.63
2023-02-06T22:32:05.555Z,100896.56
2023-02-06T22:34:34.390Z,100990.66
2023-02-06T22:37:03.155Z,100982.88
2023-02-06T22:39:31.855Z,100975.06
2023-02-06T22:42:00.589Z,100953.34
2023-02-06T22:44:29.471Z,100955.19
2023-02-06T22:46:58.268Z,100979.22
2023-02-06T22:49:27.173Z,100965.63
2023-02-06T22:51:58.513Z,101000.25
2023-02-06T22:54:27.210Z,100990.78
2023-02-06T22:56:55.909Z,101000.16
2023-02-06T22:59:26.526Z,101019.00
2023-02-06T23:01:59.711Z,101008.31
2023-02-06T23:04:31.346Z,101008.13
2023-02-06T23:07:00.021Z,101023.22
2023-02-06T23:09:31.541Z,101011.63
2023-02-06T23:12:00.924Z,100907.47
2023-02-06T23:14:31.869Z,100971.84
2023-02-06T23:17:02.054Z,101031.59
2023-02-06T23:19:31.166Z,101041.03
2023-02-06T23:22:00.643Z,101041.09
2023-02-06T23:24:29.232Z,101027.72
2023-02-06T23:26:58.082Z,100987.22
2023-02-06T23:29:26.813Z,101006.56
2023-02-06T23:31:56.354Z,101005.97
2023-02-06T23:34:25.215Z,101026.69
2023-02-06T23:36:54.254Z,100994.88
2023-02-06T23:39:23.118Z,101002.88
2023-02-06T23:41:51.989Z,101032.53
2023-02-06T23:44:20.609Z,101030.19
2023-02-06T23:46:49.271Z,101028.19
2023-02-06T23:49:19.122Z,100995.19
2023-02-06T23:51:47.790Z,100926.31
2023-02-06T23:54:16.368Z,100922.63
2023-02-06T23:56:45.426Z,100992.13
2023-02-06T23:59:14.513Z,100971.25
